This is the latest recevied weather packets stored in our database for station/object K7D3. If no packets are shown the sender has not sent any weather packets the latest 10 day(s).
| Time | Temp. | Humidity | Pressure | Rain* | Wind** | Luminosity | Snow |
|---|---|---|---|---|---|---|---|
| 1777782703 | 3.33° C | 64% | - | 0 mm | 0 m/s | - | - |
| 1777782218 | 3.89° C | 61% | - | 0 mm | 0 m/s | - | - |
| 1777781739 | 4.44° C | 60% | - | 0 mm | 0 m/s | - | - |
| 1777781260 | 4.44° C | 60% | - | 0 mm | 0 m/s | - | - |
| 1777780775 | 5° C | 59% | - | 0 mm | 0 m/s | - | - |
| 1777780296 | 5° C | 59% | - | 0 mm | 0 m/s | - | - |
| 1777779816 | 4.44° C | 58% | - | 0 mm | 0 m/s | - | - |
| 1777779334 | 5° C | 58% | - | 0 mm | 0 m/s | - | - |
| 1777778854 | 5° C | 57% | - | 0 mm | 0 m/s | - | - |
| 1777778375 | 5° C | 57% | - | 0 mm | 0 m/s | - | - |
| 1777777892 | 5° C | 57% | - | 0 mm | 0 m/s | - | - |
| 1777777413 | 5.56° C | 56% | - | 0 mm | 0 m/s | - | - |
| 1777776934 | 5.56° C | 55% | - | 0 mm | 1.79 m/s, 257° | - | - |
| 1777776451 | 5.56° C | 55% | - | 0 mm | 0 m/s | - | - |
| 1777775972 | 5.56° C | 55% | - | 0 mm | 0 m/s | - | - |
| 1777775492 | 6.11° C | 55% | - | 0 mm | 1.34 m/s, 243° | - | - |
| 1777775010 | 6.11° C | 54% | - | 0 mm | 0 m/s | - | - |
| 1777774530 | 6.11° C | 54% | - | 0 mm | 1.34 m/s, 266° | - | - |
| 1777774051 | 5.56° C | 57% | - | 0 mm | 1.79 m/s, 271° | - | - |
| 1777773568 | 5.56° C | 63% | - | 0 mm | 0 m/s | - | - |
| 1777773086 | 5° C | 66% | - | 0 mm | 0 m/s | - | - |
| 1777772607 | 4.44° C | 71% | - | 0 mm | 0 m/s | - | - |
| 1777772124 | 5° C | 67% | - | 0 mm | 0 m/s | - | - |
| 1777771645 | 5° C | 62% | - | 0 mm | 0 m/s | - | - |
| 1777771166 | 5.56° C | 60% | - | 0 mm | 0 m/s | - | - |
* Rain latest hour (hover to see other rain measurements)
** Current wind speed in m/s (hover to see current wind gust speed)